createdAt,value
2018-08-13T00:00:15.081Z,37.77
2018-08-13T00:02:42.719Z,37.69
2018-08-13T00:05:10.387Z,37.58
2018-08-13T00:07:38.381Z,37.42
2018-08-13T00:10:05.999Z,37.16
2018-08-13T00:12:33.615Z,37.27
2018-08-13T00:15:01.786Z,37.59
2018-08-13T00:17:29.688Z,37.89
2018-08-13T00:19:57.274Z,37.85
2018-08-13T00:22:24.875Z,37.61
2018-08-13T00:24:52.478Z,37.46
2018-08-13T00:27:20.328Z,37.43
2018-08-13T00:29:49.075Z,37.33
2018-08-13T00:32:16.707Z,38.01
2018-08-13T00:34:44.625Z,37.29
2018-08-13T00:37:12.890Z,38.05
2018-08-13T00:39:40.531Z,37.42
2018-08-13T00:42:08.126Z,37.65
2018-08-13T00:44:36.197Z,38.08
2018-08-13T00:47:05.419Z,37.56
2018-08-13T00:49:34.361Z,37.61
2018-08-13T00:52:02.273Z,38.41
2018-08-13T00:54:29.906Z,38.10
2018-08-13T00:56:57.544Z,38.21
2018-08-13T00:59:26.302Z,38.53
2018-08-13T01:01:54.229Z,38.03
2018-08-13T01:04:21.874Z,38.09
2018-08-13T01:06:49.514Z,38.31
2018-08-13T01:09:17.141Z,38.53
2018-08-13T01:11:44.800Z,38.25
2018-08-13T01:14:12.378Z,38.42
2018-08-13T01:16:40.006Z,37.98
2018-08-13T01:19:07.986Z,38.46
2018-08-13T01:24:14.492Z,38.37
2018-08-13T01:26:42.126Z,37.75
2018-08-13T01:29:10.627Z,38.39
2018-08-13T01:31:38.576Z,38.40
2018-08-13T01:34:06.201Z,37.83
2018-08-13T01:36:34.835Z,38.09
2018-08-13T01:39:02.490Z,37.69
2018-08-13T01:41:30.129Z,38.43
2018-08-13T01:43:57.754Z,38.28
2018-08-13T01:46:25.375Z,38.05
2018-08-13T01:48:53.309Z,38.64
2018-08-13T01:51:20.961Z,37.78
2018-08-13T01:53:49.166Z,38.27
2018-08-13T01:56:17.745Z,37.80
2018-08-13T01:58:45.357Z,38.66
2018-08-13T02:01:13.532Z,38.48
2018-08-13T02:03:41.146Z,38.06
2018-08-13T02:06:09.108Z,38.77
2018-08-13T02:08:36.762Z,38.66
2018-08-13T02:11:05.847Z,38.32
2018-08-13T02:13:34.406Z,39.15
2018-08-13T02:16:02.516Z,38.58
2018-08-13T02:18:30.750Z,39.02
2018-08-13T02:20:58.373Z,38.77
2018-08-13T02:23:25.979Z,38.69
2018-08-13T02:25:54.047Z,38.84
2018-08-13T02:28:21.659Z,38.87
2018-08-13T02:30:49.263Z,38.83
2018-08-13T02:33:16.941Z,38.85
2018-08-13T02:38:27.027Z,39.64
2018-08-13T02:40:54.658Z,39.98
2018-08-13T02:43:22.556Z,39.83
2018-08-13T02:45:50.180Z,39.34
2018-08-13T02:48:17.803Z,39.78
2018-08-13T02:50:45.729Z,40.00
2018-08-13T02:53:13.959Z,39.51
2018-08-13T02:55:41.597Z,40.00
2018-08-13T02:58:10.214Z,39.33
2018-08-13T03:00:38.141Z,40.09
2018-08-13T03:03:05.808Z,39.77
2018-08-13T03:05:33.456Z,39.42
2018-08-13T03:08:01.426Z,39.01
2018-08-13T03:10:29.459Z,39.47
2018-08-13T03:12:57.095Z,39.26
2018-08-13T03:15:24.744Z,39.65
2018-08-13T03:17:52.371Z,39.30
2018-08-13T03:20:20.314Z,39.39
2018-08-13T03:22:47.955Z,39.85
2018-08-13T03:25:15.537Z,39.52
2018-08-13T03:27:43.142Z,40.06
2018-08-13T03:30:11.035Z,39.59
2018-08-13T03:32:38.732Z,40.26
2018-08-13T03:35:06.374Z,40.17
2018-08-13T03:37:34.015Z,40.45
2018-08-13T03:40:01.921Z,40.40
2018-08-13T03:42:29.538Z,40.81
2018-08-13T03:44:57.166Z,40.46
2018-08-13T03:47:24.766Z,40.25
2018-08-13T03:49:52.687Z,40.46
2018-08-13T03:52:20.274Z,40.77
2018-08-13T03:54:47.888Z,41.03
2018-08-13T03:57:15.503Z,40.86
2018-08-13T03:59:43.496Z,41.17
2018-08-13T04:02:11.115Z,40.94
2018-08-13T04:04:38.700Z,40.32
2018-08-13T04:07:06.346Z,40.45
2018-08-13T04:09:35.302Z,40.92
2018-08-13T04:12:03.635Z,40.92
2018-08-13T04:14:32.446Z,40.32
2018-08-13T04:17:04.186Z,40.73
2018-08-13T04:19:33.756Z,41.03
2018-08-13T04:22:02.570Z,40.96
2018-08-13T04:24:30.266Z,40.69
2018-08-13T04:26:58.298Z,40.57
2018-08-13T04:29:26.343Z,40.61
2018-08-13T04:31:53.982Z,40.67
2018-08-13T04:34:21.664Z,40.17
2018-08-13T04:36:49.614Z,39.94
2018-08-13T04:39:17.199Z,40.36
2018-08-13T04:41:44.919Z,39.74
2018-08-13T04:44:14.438Z,39.64
2018-08-13T04:46:42.051Z,39.71
2018-08-13T04:49:09.640Z,39.19
2018-08-13T04:51:38.547Z,39.21
2018-08-13T04:54:06.344Z,39.03
2018-08-13T04:56:34.744Z,38.98
2018-08-13T04:59:03.035Z,38.90
2018-08-13T05:01:30.648Z,38.58
2018-08-13T05:03:58.338Z,38.48
2018-08-13T05:06:27.083Z,38.18
2018-08-13T05:08:55.526Z,38.46
2018-08-13T05:11:23.158Z,38.79
2018-08-13T05:13:51.037Z,39.62
2018-08-13T05:16:18.640Z,38.48
2018-08-13T05:18:46.234Z,38.91
2018-08-13T05:21:14.145Z,38.24
2018-08-13T05:23:42.606Z,38.40
2018-08-13T05:26:10.232Z,38.67
2018-08-13T05:28:38.320Z,37.97
2018-08-13T05:31:05.910Z,38.66
2018-08-13T05:33:33.488Z,38.80
2018-08-13T05:36:01.360Z,38.32
2018-08-13T05:38:28.976Z,39.02
2018-08-13T05:40:56.595Z,39.19
2018-08-13T05:43:24.494Z,39.42
2018-08-13T05:45:52.334Z,39.25
2018-08-13T05:48:19.930Z,39.10
2018-08-13T05:50:49.438Z,39.94
2018-08-13T05:53:17.877Z,39.82
2018-08-13T05:55:45.543Z,39.72
2018-08-13T05:58:13.725Z,40.64
2018-08-13T06:00:43.234Z,39.81
2018-08-13T06:03:10.936Z,40.03
2018-08-13T06:05:39.848Z,40.27
2018-08-13T06:08:07.434Z,40.94
2018-08-13T06:10:35.018Z,41.22
2018-08-13T06:13:02.652Z,42.07
2018-08-13T06:15:30.222Z,41.87
2018-08-13T06:17:58.912Z,42.75
2018-08-13T06:20:27.050Z,43.21
2018-08-13T06:22:54.700Z,43.35
2018-08-13T06:25:23.310Z,43.88
2018-08-13T06:27:54.470Z,44.54
2018-08-13T06:30:22.054Z,46.05
2018-08-13T06:32:50.875Z,46.88
2018-08-13T06:35:18.515Z,46.86
2018-08-13T06:37:46.159Z,47.75
2018-08-13T06:40:14.296Z,48.83
2018-08-13T06:42:42.709Z,48.07
2018-08-13T06:45:10.654Z,48.45
2018-08-13T06:47:39.624Z,48.27
2018-08-13T06:50:10.904Z,49.34
2018-08-13T06:52:38.486Z,48.92
2018-08-13T06:55:07.761Z,49.70
2018-08-13T06:57:35.719Z,49.71
2018-08-13T07:00:03.361Z,50.82
2018-08-13T07:02:31.353Z,50.30
2018-08-13T07:05:00.329Z,50.28
2018-08-13T07:07:27.979Z,50.92
2018-08-13T07:09:55.969Z,50.48
2018-08-13T07:12:23.585Z,50.55
2018-08-13T07:14:52.065Z,50.08
2018-08-13T07:17:21.900Z,50.11
2018-08-13T07:19:49.632Z,50.12
2018-08-13T07:22:17.922Z,49.38
2018-08-13T07:24:46.427Z,49.89
2018-08-13T07:27:14.070Z,49.57
2018-08-13T07:29:42.707Z,49.98
2018-08-13T07:32:10.658Z,49.39
2018-08-13T07:34:40.211Z,49.99
2018-08-13T07:37:07.867Z,50.03
2018-08-13T07:39:36.836Z,49.63
2018-08-13T07:42:04.459Z,50.43
2018-08-13T07:44:34.088Z,50.32
2018-08-13T07:47:02.303Z,50.00
2018-08-13T07:49:31.237Z,49.93
2018-08-13T07:51:58.821Z,50.25
2018-08-13T07:54:26.714Z,49.90
2018-08-13T07:56:58.502Z,49.37
2018-08-13T07:59:26.170Z,49.32
2018-08-13T08:01:56.517Z,49.79
2018-08-13T08:04:25.283Z,49.50
2018-08-13T08:06:54.631Z,48.69
2018-08-13T08:09:22.494Z,49.28
2018-08-13T08:11:51.484Z,48.52
2018-08-13T08:14:19.091Z,49.50
2018-08-13T08:16:51.433Z,49.55
2018-08-13T08:19:19.025Z,48.98
2018-08-13T08:21:46.752Z,49.53
2018-08-13T08:24:15.327Z,50.46
2018-08-13T08:26:43.973Z,51.25
2018-08-13T08:29:12.565Z,51.10
2018-08-13T08:31:41.346Z,51.74
2018-08-13T08:34:09.567Z,51.76
2018-08-13T08:36:37.135Z,52.61
2018-08-13T08:39:06.295Z,52.80
2018-08-13T08:41:34.797Z,52.73
2018-08-13T08:44:02.434Z,51.95
2018-08-13T08:46:30.338Z,52.25
2018-08-13T08:48:58.154Z,52.40
2018-08-13T08:51:25.762Z,52.67
2018-08-13T08:54:00.052Z,53.09
2018-08-13T08:56:27.698Z,52.70
2018-08-13T08:58:55.301Z,52.91
2018-08-13T09:01:24.036Z,51.76
2018-08-13T09:03:52.496Z,52.32
2018-08-13T09:06:20.127Z,53.10
2018-08-13T09:08:49.017Z,53.18
2018-08-13T09:11:16.635Z,53.35
2018-08-13T09:13:44.226Z,52.22
2018-08-13T09:16:12.139Z,52.73
2018-08-13T09:18:40.536Z,52.42
2018-08-13T09:21:08.163Z,53.03
2018-08-13T09:23:36.297Z,52.46
2018-08-13T09:26:03.964Z,52.92
2018-08-13T09:28:32.199Z,53.14
2018-08-13T09:31:00.137Z,53.00
2018-08-13T09:33:29.344Z,52.07
2018-08-13T09:35:57.821Z,52.13
2018-08-13T09:38:25.798Z,52.03
2018-08-13T09:40:55.022Z,52.21
2018-08-13T09:43:22.674Z,52.40
2018-08-13T09:45:51.326Z,51.56
2018-08-13T09:48:19.713Z,52.14
2018-08-13T09:50:47.335Z,52.47
2018-08-13T09:53:17.310Z,52.30
2018-08-13T09:55:46.469Z,51.65
2018-08-13T09:58:14.639Z,52.21
2018-08-13T10:00:48.429Z,51.41
2018-08-13T10:03:16.852Z,51.16
2018-08-13T10:05:45.605Z,51.34
2018-08-13T10:08:14.342Z,49.98
2018-08-13T10:10:41.945Z,49.71
2018-08-13T10:13:09.583Z,49.23
2018-08-13T10:15:37.544Z,49.78
2018-08-13T10:18:06.161Z,49.74
2018-08-13T10:20:33.772Z,49.61
2018-08-13T10:23:01.667Z,50.08
2018-08-13T10:25:29.299Z,49.41
2018-08-13T10:27:58.834Z,49.44
2018-08-13T10:30:26.741Z,50.06
2018-08-13T10:32:54.388Z,49.91
2018-08-13T10:35:22.662Z,49.62
2018-08-13T10:37:50.648Z,49.57
2018-08-13T10:40:19.646Z,49.13
2018-08-13T10:42:47.645Z,49.42
2018-08-13T10:45:17.770Z,49.71
2018-08-13T10:47:46.207Z,48.81
2018-08-13T10:50:14.180Z,49.63
2018-08-13T10:52:42.424Z,49.24
2018-08-13T10:55:10.136Z,48.84
2018-08-13T10:57:37.831Z,48.40
2018-08-13T11:00:05.871Z,48.12
2018-08-13T11:02:38.956Z,48.83
2018-08-13T11:05:08.067Z,49.79
2018-08-13T11:07:36.015Z,50.22
2018-08-13T11:10:06.747Z,51.37
2018-08-13T11:12:35.585Z,52.20
2018-08-13T11:15:03.621Z,53.41
2018-08-13T11:17:34.440Z,54.05
2018-08-13T11:20:03.347Z,55.20
2018-08-13T11:22:34.929Z,55.24
2018-08-13T11:25:02.732Z,56.00
2018-08-13T11:27:30.314Z,56.81
2018-08-13T11:29:58.411Z,58.48
2018-08-13T11:32:26.560Z,58.21
2018-08-13T11:34:55.172Z,59.90
2018-08-13T11:37:23.221Z,61.15
2018-08-13T11:39:52.742Z,61.57
2018-08-13T11:42:20.702Z,61.60
2018-08-13T11:44:50.361Z,61.83
2018-08-13T11:47:18.033Z,61.42
2018-08-13T11:49:48.687Z,61.20
2018-08-13T11:52:16.945Z,61.26
2018-08-13T11:54:45.196Z,60.75
2018-08-13T11:57:13.741Z,61.10
2018-08-13T11:59:41.647Z,61.32
2018-08-13T12:02:09.306Z,60.79
2018-08-13T12:04:37.334Z,60.37
2018-08-13T12:07:06.330Z,60.84
2018-08-13T12:09:33.966Z,61.14
2018-08-13T12:12:03.218Z,61.41
2018-08-13T12:14:30.838Z,60.95
2018-08-13T12:16:58.541Z,59.95
2018-08-13T12:19:26.449Z,60.17
2018-08-13T12:21:54.107Z,59.75
2018-08-13T12:24:22.497Z,58.59
2018-08-13T12:26:50.462Z,59.23
2018-08-13T12:29:18.504Z,59.20
2018-08-13T12:31:47.476Z,60.60
2018-08-13T12:34:16.610Z,60.40
2018-08-13T12:36:44.317Z,60.13
2018-08-13T12:39:13.144Z,60.69
2018-08-13T12:44:14.346Z,59.26
2018-08-13T12:46:43.545Z,59.13
2018-08-13T12:49:12.622Z,59.03
2018-08-13T12:51:40.297Z,59.82
2018-08-13T12:54:10.209Z,59.66
2018-08-13T12:56:39.440Z,59.46
2018-08-13T12:59:08.207Z,60.18
2018-08-13T13:01:36.391Z,60.41
2018-08-13T13:04:06.138Z,60.22
2018-08-13T13:06:34.631Z,59.60
2018-08-13T13:09:02.824Z,60.50
2018-08-13T13:11:31.468Z,59.83
2018-08-13T13:13:59.115Z,60.15
2018-08-13T13:16:27.355Z,60.66
2018-08-13T13:19:01.214Z,59.87
2018-08-13T13:21:28.868Z,60.86
2018-08-13T13:23:58.986Z,61.10
2018-08-13T13:26:26.927Z,61.17
2018-08-13T13:28:55.206Z,61.20
2018-08-13T13:31:23.447Z,61.59
2018-08-13T13:33:52.170Z,60.90
2018-08-13T13:36:20.415Z,61.07
2018-08-13T13:38:49.469Z,61.89
2018-08-13T13:41:18.991Z,61.53
2018-08-13T13:43:47.266Z,61.88
2018-08-13T13:46:18.581Z,62.72
2018-08-13T13:48:46.490Z,63.42
2018-08-13T13:51:14.755Z,64.28
2018-08-13T13:53:42.393Z,64.56
2018-08-13T13:56:10.637Z,64.83
2018-08-13T13:58:39.791Z,64.61
2018-08-13T14:01:07.637Z,65.29
2018-08-13T14:03:36.399Z,65.44
2018-08-13T14:06:05.692Z,65.40
2018-08-13T14:08:33.356Z,65.07
2018-08-13T14:11:01.459Z,65.48
2018-08-13T14:13:29.137Z,65.05
2018-08-13T14:15:57.343Z,65.92
2018-08-13T14:18:25.431Z,64.99
2018-08-13T14:20:53.031Z,63.61
2018-08-13T14:23:24.504Z,63.42
2018-08-13T14:25:53.405Z,62.92
2018-08-13T14:28:21.727Z,63.73
2018-08-13T14:30:49.926Z,63.47
2018-08-13T14:33:21.501Z,64.30
2018-08-13T14:35:49.935Z,63.35
2018-08-13T14:38:17.564Z,61.39
2018-08-13T14:40:45.487Z,59.49
2018-08-13T14:43:14.231Z,58.71
2018-08-13T14:45:41.899Z,60.04
2018-08-13T14:48:09.826Z,61.44
2018-08-13T14:50:37.557Z,61.80
2018-08-13T14:53:06.461Z,63.21
2018-08-13T14:55:34.402Z,64.05
2018-08-13T14:58:03.690Z,63.88
2018-08-13T15:00:35.388Z,63.16
2018-08-13T15:03:03.387Z,62.76
2018-08-13T15:05:31.101Z,62.28
2018-08-13T15:08:00.452Z,62.41
2018-08-13T15:10:28.646Z,62.97
2018-08-13T15:12:58.371Z,63.95
2018-08-13T15:15:26.118Z,65.80
2018-08-13T15:17:54.837Z,67.53
2018-08-13T15:20:24.995Z,68.51
2018-08-13T15:22:53.375Z,70.34
2018-08-13T15:25:22.398Z,71.37
2018-08-13T15:27:51.666Z,71.63
2018-08-13T15:30:19.357Z,72.42
2018-08-13T15:32:49.516Z,73.21
2018-08-13T15:35:17.395Z,73.77
2018-08-13T15:37:46.425Z,73.63
2018-08-13T15:40:14.600Z,73.88
2018-08-13T15:42:43.240Z,74.66
2018-08-13T15:45:10.848Z,74.38
2018-08-13T15:47:39.045Z,74.09
2018-08-13T15:50:06.793Z,72.75
2018-08-13T15:52:34.478Z,71.20
2018-08-13T15:55:02.480Z,69.31
2018-08-13T15:57:30.724Z,68.55
2018-08-13T15:59:59.399Z,68.01
2018-08-13T16:02:28.389Z,67.72
2018-08-13T16:04:57.686Z,65.92
2018-08-13T16:07:25.327Z,65.08
2018-08-13T16:09:53.264Z,66.32
2018-08-13T16:12:23.083Z,65.26
2018-08-13T16:14:51.337Z,61.87
2018-08-13T16:17:20.224Z,59.49
2018-08-13T16:19:48.791Z,57.56
2018-08-13T16:22:18.041Z,57.28
2018-08-13T16:24:47.045Z,56.29
2018-08-13T16:27:14.684Z,57.76
2018-08-13T16:29:42.315Z,60.54
2018-08-13T16:32:10.236Z,62.95
2018-08-13T16:34:38.031Z,65.13
2018-08-13T16:37:05.623Z,66.38
2018-08-13T16:39:33.546Z,68.04
2018-08-13T16:42:01.192Z,68.46
2018-08-13T16:44:28.833Z,68.73
2018-08-13T16:46:56.447Z,68.90
2018-08-13T16:49:24.099Z,68.06
2018-08-13T16:51:51.958Z,68.26
2018-08-13T16:54:19.566Z,69.20
2018-08-13T16:56:47.986Z,68.56
2018-08-13T16:59:15.866Z,68.99
2018-08-13T17:01:43.462Z,69.17
2018-08-13T17:04:11.135Z,69.29
2018-08-13T17:06:39.936Z,69.68
2018-08-13T17:09:07.573Z,69.61
2018-08-13T17:11:35.226Z,69.17
2018-08-13T17:14:04.545Z,68.99
2018-08-13T17:16:32.311Z,69.21
2018-08-13T17:19:02.388Z,69.05
2018-08-13T17:21:31.622Z,69.86
2018-08-13T17:23:59.299Z,69.32
2018-08-13T17:26:29.277Z,69.19
2018-08-13T17:28:57.187Z,69.40
2018-08-13T17:31:25.803Z,69.64
2018-08-13T17:33:53.415Z,70.03
2018-08-13T17:36:21.317Z,69.35
2018-08-13T17:38:49.706Z,69.53
2018-08-13T17:41:17.910Z,69.31
2018-08-13T17:43:46.657Z,70.26
2018-08-13T17:46:14.286Z,69.60
2018-08-13T17:48:41.911Z,70.23
2018-08-13T17:51:09.803Z,70.01
2018-08-13T17:53:38.335Z,70.46
2018-08-13T17:56:06.704Z,69.67
2018-08-13T17:58:35.181Z,69.90
2018-08-13T18:01:02.802Z,70.39
2018-08-13T18:03:30.438Z,70.59
2018-08-13T18:05:59.137Z,69.86
2018-08-13T18:08:26.756Z,70.20
2018-08-13T18:10:54.356Z,70.68
2018-08-13T18:13:22.296Z,70.75
2018-08-13T18:15:49.995Z,70.22
2018-08-13T18:18:17.585Z,70.95
2018-08-13T18:20:48.630Z,71.72
2018-08-13T18:23:16.278Z,71.56
2018-08-13T18:25:43.975Z,71.33
2018-08-13T18:28:12.009Z,71.92
2018-08-13T18:30:39.792Z,71.70
2018-08-13T18:33:07.440Z,71.96
2018-08-13T18:35:35.363Z,71.23
2018-08-13T18:38:04.631Z,71.14
2018-08-13T18:40:36.159Z,71.75
2018-08-13T18:43:10.988Z,71.76
2018-08-13T18:45:38.899Z,71.36
2018-08-13T18:48:07.077Z,72.32
2018-08-13T18:50:36.645Z,72.07
2018-08-13T18:53:07.237Z,72.44
2018-08-13T18:55:35.628Z,72.08
2018-08-13T18:58:08.889Z,72.57
2018-08-13T19:00:37.465Z,72.93
2018-08-13T19:03:05.749Z,73.20
2018-08-13T19:05:33.695Z,73.57
2018-08-13T19:08:02.497Z,72.78
2018-08-13T19:10:32.020Z,73.22
2018-08-13T19:13:00.796Z,73.00
2018-08-13T19:15:29.767Z,73.72
2018-08-13T19:17:57.539Z,73.59
2018-08-13T19:20:29.627Z,73.66
2018-08-13T19:22:59.045Z,73.83
2018-08-13T19:25:27.767Z,73.91
2018-08-13T19:28:01.643Z,73.83
2018-08-13T19:30:30.217Z,73.65
2018-08-13T19:32:59.302Z,73.16
2018-08-13T19:35:40.654Z,73.57
2018-08-13T19:38:09.198Z,73.43
2018-08-13T19:40:39.699Z,73.58
2018-08-13T19:43:08.614Z,73.68
2018-08-13T19:45:43.447Z,73.41
2018-08-13T19:48:12.428Z,73.69
2018-08-13T19:50:41.863Z,73.52
2018-08-13T19:56:06.549Z,73.45
2018-08-13T19:58:37.548Z,73.14
2018-08-13T20:01:05.866Z,73.15
2018-08-13T20:03:34.977Z,73.61
2018-08-13T20:06:02.643Z,73.39
2018-08-13T20:08:30.316Z,73.12
2018-08-13T20:11:00.199Z,73.96
2018-08-13T20:13:29.524Z,73.61
2018-08-13T20:16:01.900Z,73.39
2018-08-13T20:18:29.791Z,73.29
2018-08-13T20:20:57.414Z,73.64
2018-08-13T20:23:25.970Z,74.00
2018-08-13T20:25:54.869Z,74.34
2018-08-13T20:31:18.569Z,73.50
2018-08-13T20:33:47.968Z,73.85
2018-08-13T20:36:16.285Z,74.16
2018-08-13T20:38:46.542Z,74.37
2018-08-13T20:41:18.315Z,74.53
2018-08-13T20:43:47.492Z,73.72
2018-08-13T20:46:15.569Z,74.38
2018-08-13T20:48:44.271Z,73.79
2018-08-13T20:51:13.841Z,74.05
2018-08-13T20:53:42.043Z,74.01
2018-08-13T20:56:10.451Z,74.68
2018-08-13T20:58:39.489Z,74.45
2018-08-13T21:01:07.671Z,74.68
2018-08-13T21:03:42.571Z,74.81
2018-08-13T21:06:12.015Z,74.38
2018-08-13T21:08:40.231Z,74.23
2018-08-13T21:11:08.222Z,74.58
2018-08-13T21:13:36.555Z,74.07
2018-08-13T21:16:07.917Z,74.09
2018-08-13T21:18:36.662Z,74.74
2018-08-13T21:21:06.507Z,74.29
2018-08-13T21:23:35.825Z,74.97
2018-08-13T21:26:03.767Z,74.96
2018-08-13T21:28:31.738Z,74.95
2018-08-13T21:31:00.272Z,74.70
2018-08-13T21:33:31.838Z,74.24
2018-08-13T21:35:59.430Z,74.36
2018-08-13T21:38:27.085Z,74.25
2018-08-13T21:40:58.583Z,74.68
2018-08-13T21:43:29.952Z,73.90
2018-08-13T21:45:57.827Z,74.99
2018-08-13T21:48:27.450Z,74.41
2018-08-13T21:50:56.396Z,74.91
2018-08-13T21:53:30.583Z,74.46
2018-08-13T21:56:01.972Z,74.87
2018-08-13T21:58:30.607Z,74.51
2018-08-13T22:01:03.409Z,75.19
2018-08-13T22:03:32.542Z,74.46
2018-08-13T22:06:01.791Z,74.67
2018-08-13T22:08:29.403Z,75.09
2018-08-13T22:10:59.053Z,74.73
2018-08-13T22:13:30.527Z,75.05
2018-08-13T22:15:58.289Z,75.31
2018-08-13T22:18:25.923Z,75.28
2018-08-13T22:20:55.623Z,75.29
2018-08-13T22:23:23.212Z,75.25
2018-08-13T22:25:51.422Z,75.04
2018-08-13T22:28:20.253Z,74.97
2018-08-13T22:30:48.062Z,74.91
2018-08-13T22:33:16.825Z,75.05
2018-08-13T22:35:47.552Z,75.35
2018-08-13T22:38:15.438Z,75.12
2018-08-13T22:40:43.027Z,75.71
2018-08-13T22:43:10.652Z,74.98
2018-08-13T22:45:38.363Z,75.35
2018-08-13T22:48:06.002Z,75.76
2018-08-13T22:50:36.558Z,75.43
2018-08-13T22:53:04.152Z,75.42
2018-08-13T22:55:32.033Z,75.87
2018-08-13T22:58:00.801Z,75.85
2018-08-13T23:00:28.531Z,75.85
2018-08-13T23:02:56.456Z,76.10
2018-08-13T23:05:25.124Z,76.46
2018-08-13T23:07:53.776Z,75.92
2018-08-13T23:10:23.311Z,75.79
2018-08-13T23:12:51.276Z,75.70
2018-08-13T23:15:19.588Z,75.44
2018-08-13T23:17:47.361Z,75.76
2018-08-13T23:20:15.019Z,75.33
2018-08-13T23:22:42.903Z,75.24
2018-08-13T23:25:10.528Z,75.01
2018-08-13T23:27:40.127Z,75.10
2018-08-13T23:30:08.034Z,74.35
2018-08-13T23:32:36.240Z,74.73
2018-08-13T23:35:05.025Z,74.29
2018-08-13T23:37:33.625Z,74.39
2018-08-13T23:40:01.220Z,74.20
2018-08-13T23:42:29.426Z,74.15
2018-08-13T23:44:57.050Z,74.67
2018-08-13T23:47:24.699Z,74.75
2018-08-13T23:49:52.390Z,74.06
2018-08-13T23:52:20.415Z,74.36
2018-08-13T23:54:48.026Z,74.15
2018-08-13T23:57:15.616Z,74.79
2018-08-13T23:59:43.599Z,74.66
